sensor_id;sensor_type;location;lat;lon;timestamp;temperature;humidity
22706;DHT22;11520;51.198;4.468;2022-10-31T00:00:21;14.80;99.90
22706;DHT22;11520;51.198;4.468;2022-10-31T00:02:48;14.80;99.90
22706;DHT22;11520;51.198;4.468;2022-10-31T00:05:13;14.80;99.90
22706;DHT22;11520;51.198;4.468;2022-10-31T00:07:39;14.80;99.90
22706;DHT22;11520;51.198;4.468;2022-10-31T00:10:05;14.80;99.90
22706;DHT22;11520;51.198;4.468;2022-10-31T00:12:32;14.80;99.90
22706;DHT22;11520;51.198;4.468;2022-10-31T00:14:58;14.70;99.90
22706;DHT22;11520;51.198;4.468;2022-10-31T00:17:23;14.60;99.90
22706;DHT22;11520;51.198;4.468;2022-10-31T00:19:49;14.50;99.90
22706;DHT22;11520;51.198;4.468;2022-10-31T00:22:15;14.50;99.90
22706;DHT22;11520;51.198;4.468;2022-10-31T00:24:42;14.40;99.90
22706;DHT22;11520;51.198;4.468;2022-10-31T00:27:07;14.50;99.90
22706;DHT22;11520;51.198;4.468;2022-10-31T00:29:33;14.40;99.90
22706;DHT22;11520;51.198;4.468;2022-10-31T00:32:01;14.30;99.90
22706;DHT22;11520;51.198;4.468;2022-10-31T00:34:26;14.40;99.90
22706;DHT22;11520;51.198;4.468;2022-10-31T00:36:52;14.30;99.90
22706;DHT22;11520;51.198;4.468;2022-10-31T00:39:17;14.30;99.90
22706;DHT22;11520;51.198;4.468;2022-10-31T00:41:43;14.20;99.90
22706;DHT22;11520;51.198;4.468;2022-10-31T00:44:10;14.20;99.90
22706;DHT22;11520;51.198;4.468;2022-10-31T00:46:37;14.20;99.90
22706;DHT22;11520;51.198;4.468;2022-10-31T00:49:03;14.20;99.90
22706;DHT22;11520;51.198;4.468;2022-10-31T00:51:28;14.10;99.90
22706;DHT22;11520;51.198;4.468;2022-10-31T00:53:54;14.10;99.90
22706;DHT22;11520;51.198;4.468;2022-10-31T00:56:19;14.10;99.90
22706;DHT22;11520;51.198;4.468;2022-10-31T00:58:45;14.10;99.90
22706;DHT22;11520;51.198;4.468;2022-10-31T01:01:13;14.00;99.90
22706;DHT22;11520;51.198;4.468;2022-10-31T01:03:38;14.00;99.90
22706;DHT22;11520;51.198;4.468;2022-10-31T01:06:06;13.90;99.90
22706;DHT22;11520;51.198;4.468;2022-10-31T01:08:33;13.90;99.90
22706;DHT22;11520;51.198;4.468;2022-10-31T01:11:12;13.80;99.90
22706;DHT22;11520;51.198;4.468;2022-10-31T01:13:39;13.80;99.90
22706;DHT22;11520;51.198;4.468;2022-10-31T01:16:08;13.70;99.90
22706;DHT22;11520;51.198;4.468;2022-10-31T01:18:34;13.70;99.90
22706;DHT22;11520;51.198;4.468;2022-10-31T01:21:09;13.60;99.90
22706;DHT22;11520;51.198;4.468;2022-10-31T01:23:35;13.60;99.90
22706;DHT22;11520;51.198;4.468;2022-10-31T01:26:05;13.60;99.90
22706;DHT22;11520;51.198;4.468;2022-10-31T01:28:32;13.50;99.90
22706;DHT22;11520;51.198;4.468;2022-10-31T01:31:03;13.50;99.90
22706;DHT22;11520;51.198;4.468;2022-10-31T01:33:30;13.50;99.90
22706;DHT22;11520;51.198;4.468;2022-10-31T01:35:57;13.50;99.90
22706;DHT22;11520;51.198;4.468;2022-10-31T01:38:23;13.50;99.90
22706;DHT22;11520;51.198;4.468;2022-10-31T01:40:49;13.50;99.90
22706;DHT22;11520;51.198;4.468;2022-10-31T01:43:15;13.40;99.90
22706;DHT22;11520;51.198;4.468;2022-10-31T01:45:43;13.40;99.90
22706;DHT22;11520;51.198;4.468;2022-10-31T01:48:20;13.40;99.90
22706;DHT22;11520;51.198;4.468;2022-10-31T01:50:51;13.30;99.90
22706;DHT22;11520;51.198;4.468;2022-10-31T01:53:18;13.30;99.90
22706;DHT22;11520;51.198;4.468;2022-10-31T01:55:46;13.20;99.90
22706;DHT22;11520;51.198;4.468;2022-10-31T01:58:15;13.20;99.90
22706;DHT22;11520;51.198;4.468;2022-10-31T02:00:46;13.10;99.90
22706;DHT22;11520;51.198;4.468;2022-10-31T02:03:13;13.10;99.90
22706;DHT22;11520;51.198;4.468;2022-10-31T02:05:39;13.10;99.90
22706;DHT22;11520;51.198;4.468;2022-10-31T02:08:23;13.00;99.90
22706;DHT22;11520;51.198;4.468;2022-10-31T02:10:50;13.10;99.90
22706;DHT22;11520;51.198;4.468;2022-10-31T02:13:17;13.00;99.90
22706;DHT22;11520;51.198;4.468;2022-10-31T02:15:45;13.00;99.90
22706;DHT22;11520;51.198;4.468;2022-10-31T02:18:12;13.00;99.90
22706;DHT22;11520;51.198;4.468;2022-10-31T02:21:09;12.90;99.90
22706;DHT22;11520;51.198;4.468;2022-10-31T02:26:48;12.90;99.90
22706;DHT22;11520;51.198;4.468;2022-10-31T02:30:16;12.90;99.90
22706;DHT22;11520;51.198;4.468;2022-10-31T02:32:21;12.90;99.90
22706;DHT22;11520;51.198;4.468;2022-10-31T02:34:52;12.80;99.90
22706;DHT22;11520;51.198;4.468;2022-10-31T02:46:10;12.70;99.90
22706;DHT22;11520;51.198;4.468;2022-10-31T02:48:40;12.70;99.90
22706;DHT22;11520;51.198;4.468;2022-10-31T02:51:07;12.70;99.90
22706;DHT22;11520;51.198;4.468;2022-10-31T02:53:34;12.70;99.90
22706;DHT22;11520;51.198;4.468;2022-10-31T02:58:39;12.70;99.90
22706;DHT22;11520;51.198;4.468;2022-10-31T03:01:27;12.70;99.90
22706;DHT22;11520;51.198;4.468;2022-10-31T03:06:59;12.60;99.90
22706;DHT22;11520;51.198;4.468;2022-10-31T03:09:33;12.50;99.90
22706;DHT22;11520;51.198;4.468;2022-10-31T03:12:42;12.50;99.90
22706;DHT22;11520;51.198;4.468;2022-10-31T03:15:21;12.50;99.90
22706;DHT22;11520;51.198;4.468;2022-10-31T03:20:33;12.50;99.90
22706;DHT22;11520;51.198;4.468;2022-10-31T03:23:02;12.50;99.90
22706;DHT22;11520;51.198;4.468;2022-10-31T03:25:30;12.40;99.90
22706;DHT22;11520;51.198;4.468;2022-10-31T03:27:57;12.40;99.90
22706;DHT22;11520;51.198;4.468;2022-10-31T03:30:25;12.40;99.90
22706;DHT22;11520;51.198;4.468;2022-10-31T03:32:53;12.40;99.90
22706;DHT22;11520;51.198;4.468;2022-10-31T03:35:23;12.40;99.90
22706;DHT22;11520;51.198;4.468;2022-10-31T03:37:51;12.40;99.90
22706;DHT22;11520;51.198;4.468;2022-10-31T03:40:20;12.30;99.90
22706;DHT22;11520;51.198;4.468;2022-10-31T03:42:53;12.30;99.90
22706;DHT22;11520;51.198;4.468;2022-10-31T03:45:28;12.30;99.90
22706;DHT22;11520;51.198;4.468;2022-10-31T03:47:55;12.30;99.90
22706;DHT22;11520;51.198;4.468;2022-10-31T03:50:21;12.30;99.90
22706;DHT22;11520;51.198;4.468;2022-10-31T03:52:59;12.20;99.90
22706;DHT22;11520;51.198;4.468;2022-10-31T03:58:12;12.10;99.90
22706;DHT22;11520;51.198;4.468;2022-10-31T04:00:43;12.10;99.90
22706;DHT22;11520;51.198;4.468;2022-10-31T04:03:15;12.10;99.90
22706;DHT22;11520;51.198;4.468;2022-10-31T04:05:45;12.10;99.90
22706;DHT22;11520;51.198;4.468;2022-10-31T04:08:16;12.10;99.90
22706;DHT22;11520;51.198;4.468;2022-10-31T04:10:44;12.00;99.90
22706;DHT22;11520;51.198;4.468;2022-10-31T04:13:15;12.00;99.90
22706;DHT22;11520;51.198;4.468;2022-10-31T04:15:43;11.90;99.90
22706;DHT22;11520;51.198;4.468;2022-10-31T04:18:09;11.90;99.90
22706;DHT22;11520;51.198;4.468;2022-10-31T04:20:38;11.90;99.90
22706;DHT22;11520;51.198;4.468;2022-10-31T04:23:05;11.80;99.90
22706;DHT22;11520;51.198;4.468;2022-10-31T04:25:37;11.80;99.90
22706;DHT22;11520;51.198;4.468;2022-10-31T04:28:03;11.80;99.90
22706;DHT22;11520;51.198;4.468;2022-10-31T04:30:29;11.80;99.90
22706;DHT22;11520;51.198;4.468;2022-10-31T04:32:55;11.80;99.90
22706;DHT22;11520;51.198;4.468;2022-10-31T04:35:20;11.80;99.90
22706;DHT22;11520;51.198;4.468;2022-10-31T04:37:46;11.90;99.90
22706;DHT22;11520;51.198;4.468;2022-10-31T04:40:11;11.80;99.90
22706;DHT22;11520;51.198;4.468;2022-10-31T04:42:37;11.80;99.90
22706;DHT22;11520;51.198;4.468;2022-10-31T04:45:03;11.80;99.90
22706;DHT22;11520;51.198;4.468;2022-10-31T04:47:31;11.80;99.90
22706;DHT22;11520;51.198;4.468;2022-10-31T04:49:57;11.80;99.90
22706;DHT22;11520;51.198;4.468;2022-10-31T04:52:24;11.80;99.90
22706;DHT22;11520;51.198;4.468;2022-10-31T04:54:50;11.80;99.90
22706;DHT22;11520;51.198;4.468;2022-10-31T04:57:15;11.80;99.90
22706;DHT22;11520;51.198;4.468;2022-10-31T04:59:41;11.80;99.90
22706;DHT22;11520;51.198;4.468;2022-10-31T05:02:07;11.80;99.90
22706;DHT22;11520;51.198;4.468;2022-10-31T05:04:32;11.80;99.90
22706;DHT22;11520;51.198;4.468;2022-10-31T05:06:58;11.80;99.90
22706;DHT22;11520;51.198;4.468;2022-10-31T05:09:23;11.70;99.90
22706;DHT22;11520;51.198;4.468;2022-10-31T05:11:49;11.70;99.90
22706;DHT22;11520;51.198;4.468;2022-10-31T05:14:15;11.60;99.90
22706;DHT22;11520;51.198;4.468;2022-10-31T05:16:40;11.70;99.90
22706;DHT22;11520;51.198;4.468;2022-10-31T05:19:06;11.70;99.90
22706;DHT22;11520;51.198;4.468;2022-10-31T05:21:32;11.70;99.90
22706;DHT22;11520;51.198;4.468;2022-10-31T05:23:57;11.70;99.90
22706;DHT22;11520;51.198;4.468;2022-10-31T05:26:23;11.70;99.90
22706;DHT22;11520;51.198;4.468;2022-10-31T05:28:49;11.70;99.90
22706;DHT22;11520;51.198;4.468;2022-10-31T05:31:14;11.70;99.90
22706;DHT22;11520;51.198;4.468;2022-10-31T05:33:40;11.80;99.90
22706;DHT22;11520;51.198;4.468;2022-10-31T05:36:07;11.80;99.90
22706;DHT22;11520;51.198;4.468;2022-10-31T05:38:32;11.80;99.90
22706;DHT22;11520;51.198;4.468;2022-10-31T05:40:58;11.80;99.90
22706;DHT22;11520;51.198;4.468;2022-10-31T05:43:28;11.90;99.90
22706;DHT22;11520;51.198;4.468;2022-10-31T05:45:55;11.80;99.90
22706;DHT22;11520;51.198;4.468;2022-10-31T05:48:23;11.90;99.90
22706;DHT22;11520;51.198;4.468;2022-10-31T05:50:49;11.90;99.90
22706;DHT22;11520;51.198;4.468;2022-10-31T05:53:15;11.90;99.90
22706;DHT22;11520;51.198;4.468;2022-10-31T05:55:42;11.90;99.90
22706;DHT22;11520;51.198;4.468;2022-10-31T05:58:09;12.00;99.90
22706;DHT22;11520;51.198;4.468;2022-10-31T06:00:34;12.00;99.90
22706;DHT22;11520;51.198;4.468;2022-10-31T06:03:06;12.00;99.90
22706;DHT22;11520;51.198;4.468;2022-10-31T06:05:33;12.00;99.90
22706;DHT22;11520;51.198;4.468;2022-10-31T06:07:59;12.10;99.90
22706;DHT22;11520;51.198;4.468;2022-10-31T06:10:26;12.10;99.90
22706;DHT22;11520;51.198;4.468;2022-10-31T06:12:54;12.10;99.90
22706;DHT22;11520;51.198;4.468;2022-10-31T06:15:20;12.20;99.90
22706;DHT22;11520;51.198;4.468;2022-10-31T06:17:46;12.20;99.90
22706;DHT22;11520;51.198;4.468;2022-10-31T06:20:11;12.20;99.90
22706;DHT22;11520;51.198;4.468;2022-10-31T06:22:37;12.20;99.90
22706;DHT22;11520;51.198;4.468;2022-10-31T06:25:03;12.20;99.90
22706;DHT22;11520;51.198;4.468;2022-10-31T06:27:29;12.20;99.90
22706;DHT22;11520;51.198;4.468;2022-10-31T06:29:54;12.30;99.90
22706;DHT22;11520;51.198;4.468;2022-10-31T06:32:20;12.30;99.90
22706;DHT22;11520;51.198;4.468;2022-10-31T06:34:45;12.40;99.90
22706;DHT22;11520;51.198;4.468;2022-10-31T06:37:14;12.40;99.90
22706;DHT22;11520;51.198;4.468;2022-10-31T06:39:40;12.40;99.90
22706;DHT22;11520;51.198;4.468;2022-10-31T06:42:06;12.50;99.90
22706;DHT22;11520;51.198;4.468;2022-10-31T06:44:32;12.50;99.90
22706;DHT22;11520;51.198;4.468;2022-10-31T06:46:58;12.50;99.90
22706;DHT22;11520;51.198;4.468;2022-10-31T06:49:25;12.50;99.90
22706;DHT22;11520;51.198;4.468;2022-10-31T06:51:51;12.50;99.90
22706;DHT22;11520;51.198;4.468;2022-10-31T06:54:17;12.50;99.90
22706;DHT22;11520;51.198;4.468;2022-10-31T06:56:45;12.40;99.90
22706;DHT22;11520;51.198;4.468;2022-10-31T06:59:12;12.50;99.90
22706;DHT22;11520;51.198;4.468;2022-10-31T07:01:38;12.50;99.90
22706;DHT22;11520;51.198;4.468;2022-10-31T07:04:04;12.50;99.90
22706;DHT22;11520;51.198;4.468;2022-10-31T07:06:29;12.60;99.90
22706;DHT22;11520;51.198;4.468;2022-10-31T07:08:55;12.70;99.90
22706;DHT22;11520;51.198;4.468;2022-10-31T07:11:21;12.70;99.90
22706;DHT22;11520;51.198;4.468;2022-10-31T07:13:46;12.80;99.90
22706;DHT22;11520;51.198;4.468;2022-10-31T07:16:14;12.90;99.90
22706;DHT22;11520;51.198;4.468;2022-10-31T07:18:46;13.00;99.90
22706;DHT22;11520;51.198;4.468;2022-10-31T07:21:11;13.20;99.90
22706;DHT22;11520;51.198;4.468;2022-10-31T07:23:37;13.30;99.90
22706;DHT22;11520;51.198;4.468;2022-10-31T07:26:03;13.40;99.90
22706;DHT22;11520;51.198;4.468;2022-10-31T07:28:29;13.40;99.90
22706;DHT22;11520;51.198;4.468;2022-10-31T07:30:56;13.40;99.90
22706;DHT22;11520;51.198;4.468;2022-10-31T07:33:23;13.50;99.90
22706;DHT22;11520;51.198;4.468;2022-10-31T07:35:51;13.70;99.90
22706;DHT22;11520;51.198;4.468;2022-10-31T07:38:17;13.80;99.90
22706;DHT22;11520;51.198;4.468;2022-10-31T07:40:42;13.70;99.90
22706;DHT22;11520;51.198;4.468;2022-10-31T07:43:12;13.40;99.90
22706;DHT22;11520;51.198;4.468;2022-10-31T07:45:38;13.20;99.90
22706;DHT22;11520;51.198;4.468;2022-10-31T07:48:06;12.90;99.90
22706;DHT22;11520;51.198;4.468;2022-10-31T07:50:32;12.80;99.90
22706;DHT22;11520;51.198;4.468;2022-10-31T07:55:28;12.80;99.90
22706;DHT22;11520;51.198;4.468;2022-10-31T07:58:06;13.00;99.90
22706;DHT22;11520;51.198;4.468;2022-10-31T08:00:34;13.20;99.90
22706;DHT22;11520;51.198;4.468;2022-10-31T08:03:02;13.30;99.90
22706;DHT22;11520;51.198;4.468;2022-10-31T08:05:29;13.60;99.90
22706;DHT22;11520;51.198;4.468;2022-10-31T08:07:58;13.70;99.90
22706;DHT22;11520;51.198;4.468;2022-10-31T08:10:25;13.80;99.90
22706;DHT22;11520;51.198;4.468;2022-10-31T08:13:05;13.70;99.90
22706;DHT22;11520;51.198;4.468;2022-10-31T08:15:31;13.80;99.90
22706;DHT22;11520;51.198;4.468;2022-10-31T08:17:57;13.80;99.90
22706;DHT22;11520;51.198;4.468;2022-10-31T08:20:23;14.00;99.90
22706;DHT22;11520;51.198;4.468;2022-10-31T08:23:00;14.10;99.90
22706;DHT22;11520;51.198;4.468;2022-10-31T08:25:28;14.10;99.90
22706;DHT22;11520;51.198;4.468;2022-10-31T08:27:55;14.00;99.90
22706;DHT22;11520;51.198;4.468;2022-10-31T08:30:24;13.90;99.90
22706;DHT22;11520;51.198;4.468;2022-10-31T08:33:04;14.10;99.90
22706;DHT22;11520;51.198;4.468;2022-10-31T08:35:30;14.00;99.90
22706;DHT22;11520;51.198;4.468;2022-10-31T08:38:01;14.20;99.90
22706;DHT22;11520;51.198;4.468;2022-10-31T08:40:29;14.30;99.90
22706;DHT22;11520;51.198;4.468;2022-10-31T08:43:21;14.30;99.90
22706;DHT22;11520;51.198;4.468;2022-10-31T08:45:48;14.60;99.90
22706;DHT22;11520;51.198;4.468;2022-10-31T08:48:16;14.70;99.90
22706;DHT22;11520;51.198;4.468;2022-10-31T08:50:43;15.00;99.90
22706;DHT22;11520;51.198;4.468;2022-10-31T08:53:18;15.10;99.90
22706;DHT22;11520;51.198;4.468;2022-10-31T08:55:46;15.10;99.90
22706;DHT22;11520;51.198;4.468;2022-10-31T08:58:17;15.30;99.90
22706;DHT22;11520;51.198;4.468;2022-10-31T09:00:43;15.40;99.90
22706;DHT22;11520;51.198;4.468;2022-10-31T09:03:11;15.40;99.90
22706;DHT22;11520;51.198;4.468;2022-10-31T09:05:38;15.50;99.90
22706;DHT22;11520;51.198;4.468;2022-10-31T09:08:05;15.40;99.90
22706;DHT22;11520;51.198;4.468;2022-10-31T09:10:33;15.30;99.90
22706;DHT22;11520;51.198;4.468;2022-10-31T09:13:08;15.20;99.90
22706;DHT22;11520;51.198;4.468;2022-10-31T09:15:35;14.90;99.90
22706;DHT22;11520;51.198;4.468;2022-10-31T09:18:02;14.70;99.90
22706;DHT22;11520;51.198;4.468;2022-10-31T09:20:30;14.90;99.90
22706;DHT22;11520;51.198;4.468;2022-10-31T09:23:00;14.80;99.90
22706;DHT22;11520;51.198;4.468;2022-10-31T09:25:28;15.00;99.90
22706;DHT22;11520;51.198;4.468;2022-10-31T09:27:58;15.10;99.90
22706;DHT22;11520;51.198;4.468;2022-10-31T09:30:27;15.40;99.90
22706;DHT22;11520;51.198;4.468;2022-10-31T09:32:57;15.30;99.90
22706;DHT22;11520;51.198;4.468;2022-10-31T09:35:24;15.30;99.90
22706;DHT22;11520;51.198;4.468;2022-10-31T09:38:00;15.40;99.90
22706;DHT22;11520;51.198;4.468;2022-10-31T09:41:21;15.50;99.90
22706;DHT22;11520;51.198;4.468;2022-10-31T09:44:12;15.60;99.90
22706;DHT22;11520;51.198;4.468;2022-10-31T09:52:38;15.50;99.90
22706;DHT22;11520;51.198;4.468;2022-10-31T09:57:39;15.70;99.90
22706;DHT22;11520;51.198;4.468;2022-10-31T10:00:18;15.90;99.90
22706;DHT22;11520;51.198;4.468;2022-10-31T10:03:07;16.00;99.90
22706;DHT22;11520;51.198;4.468;2022-10-31T10:08:23;16.00;99.90
22706;DHT22;11520;51.198;4.468;2022-10-31T10:24:40;16.00;99.90
22706;DHT22;11520;51.198;4.468;2022-10-31T10:30:55;16.60;99.90
22706;DHT22;11520;51.198;4.468;2022-10-31T10:33:10;16.60;99.90
22706;DHT22;11520;51.198;4.468;2022-10-31T10:35:45;16.70;99.90
22706;DHT22;11520;51.198;4.468;2022-10-31T10:41:01;16.70;99.90
22706;DHT22;11520;51.198;4.468;2022-10-31T10:43:33;16.90;99.90
22706;DHT22;11520;51.198;4.468;2022-10-31T10:55:12;17.00;99.90
22706;DHT22;11520;51.198;4.468;2022-10-31T10:58:00;16.90;99.90
22706;DHT22;11520;51.198;4.468;2022-10-31T11:03:00;16.60;99.90
22706;DHT22;11520;51.198;4.468;2022-10-31T11:08:04;16.90;99.90
22706;DHT22;11520;51.198;4.468;2022-10-31T11:10:31;16.90;99.90
22706;DHT22;11520;51.198;4.468;2022-10-31T11:16:01;16.80;99.90
22706;DHT22;11520;51.198;4.468;2022-10-31T11:18:31;17.10;99.90
22706;DHT22;11520;51.198;4.468;2022-10-31T11:21:01;17.10;99.90
22706;DHT22;11520;51.198;4.468;2022-10-31T11:23:29;17.30;99.90
22706;DHT22;11520;51.198;4.468;2022-10-31T11:26:04;17.20;99.90
22706;DHT22;11520;51.198;4.468;2022-10-31T11:28:32;16.90;99.90
22706;DHT22;11520;51.198;4.468;2022-10-31T11:31:05;16.80;99.90
22706;DHT22;11520;51.198;4.468;2022-10-31T11:33:49;16.70;99.90
22706;DHT22;11520;51.198;4.468;2022-10-31T11:36:22;16.60;99.90
22706;DHT22;11520;51.198;4.468;2022-10-31T11:38:48;16.90;99.90
22706;DHT22;11520;51.198;4.468;2022-10-31T11:41:26;16.90;99.90
22706;DHT22;11520;51.198;4.468;2022-10-31T11:44:20;17.00;99.90
22706;DHT22;11520;51.198;4.468;2022-10-31T11:46:52;17.10;99.90
22706;DHT22;11520;51.198;4.468;2022-10-31T11:49:38;17.20;99.90
22706;DHT22;11520;51.198;4.468;2022-10-31T11:52:20;17.50;99.90
22706;DHT22;11520;51.198;4.468;2022-10-31T11:54:48;17.30;99.90
22706;DHT22;11520;51.198;4.468;2022-10-31T11:57:46;17.10;99.90
22706;DHT22;11520;51.198;4.468;2022-10-31T12:00:38;17.20;99.90
22706;DHT22;11520;51.198;4.468;2022-10-31T12:03:29;17.30;99.90
22706;DHT22;11520;51.198;4.468;2022-10-31T12:06:14;17.30;99.90
22706;DHT22;11520;51.198;4.468;2022-10-31T12:08:43;17.50;99.90
22706;DHT22;11520;51.198;4.468;2022-10-31T12:14:15;17.40;99.90
22706;DHT22;11520;51.198;4.468;2022-10-31T12:16:54;17.30;99.90
22706;DHT22;11520;51.198;4.468;2022-10-31T12:30:02;17.40;99.90
22706;DHT22;11520;51.198;4.468;2022-10-31T12:33:45;17.50;99.90
22706;DHT22;11520;51.198;4.468;2022-10-31T12:41:27;17.60;99.90
22706;DHT22;11520;51.198;4.468;2022-10-31T12:44:16;17.50;99.90
22706;DHT22;11520;51.198;4.468;2022-10-31T12:57:52;18.10;99.90
22706;DHT22;11520;51.198;4.468;2022-10-31T13:00:20;18.40;99.90
22706;DHT22;11520;51.198;4.468;2022-10-31T13:08:11;18.20;99.90
22706;DHT22;11520;51.198;4.468;2022-10-31T13:13:27;18.50;99.90
22706;DHT22;11520;51.198;4.468;2022-10-31T13:16:02;18.80;99.90
22706;DHT22;11520;51.198;4.468;2022-10-31T13:18:35;18.70;99.90
22706;DHT22;11520;51.198;4.468;2022-10-31T13:21:08;18.90;99.90
22706;DHT22;11520;51.198;4.468;2022-10-31T13:23:38;19.20;99.90
22706;DHT22;11520;51.198;4.468;2022-10-31T13:26:19;19.60;99.90
22706;DHT22;11520;51.198;4.468;2022-10-31T13:29:36;19.40;99.90
22706;DHT22;11520;51.198;4.468;2022-10-31T13:31:40;19.20;99.90
22706;DHT22;11520;51.198;4.468;2022-10-31T13:34:25;19.00;99.90
22706;DHT22;11520;51.198;4.468;2022-10-31T13:37:14;19.00;99.90
22706;DHT22;11520;51.198;4.468;2022-10-31T13:45:18;18.50;99.90
22706;DHT22;11520;51.198;4.468;2022-10-31T13:47:55;18.60;99.90
22706;DHT22;11520;51.198;4.468;2022-10-31T13:50:25;18.70;99.90
22706;DHT22;11520;51.198;4.468;2022-10-31T13:52:51;18.70;99.90
22706;DHT22;11520;51.198;4.468;2022-10-31T13:55:38;18.70;99.90
22706;DHT22;11520;51.198;4.468;2022-10-31T14:00:59;18.70;99.90
22706;DHT22;11520;51.198;4.468;2022-10-31T14:03:28;18.80;99.90
22706;DHT22;11520;51.198;4.468;2022-10-31T14:05:55;18.90;99.90
22706;DHT22;11520;51.198;4.468;2022-10-31T14:08:22;18.90;99.90
22706;DHT22;11520;51.198;4.468;2022-10-31T14:10:51;19.00;99.90
22706;DHT22;11520;51.198;4.468;2022-10-31T14:13:33;18.70;99.90
22706;DHT22;11520;51.198;4.468;2022-10-31T14:16:30;18.80;99.90
22706;DHT22;11520;51.198;4.468;2022-10-31T14:19:06;18.70;99.90
22706;DHT22;11520;51.198;4.468;2022-10-31T14:21:47;18.70;99.90
22706;DHT22;11520;51.198;4.468;2022-10-31T14:26:55;18.70;99.90
22706;DHT22;11520;51.198;4.468;2022-10-31T14:29:27;18.70;99.90
22706;DHT22;11520;51.198;4.468;2022-10-31T14:31:55;18.70;99.90
22706;DHT22;11520;51.198;4.468;2022-10-31T14:37:18;18.60;99.90
22706;DHT22;11520;51.198;4.468;2022-10-31T14:42:52;18.60;99.90
22706;DHT22;11520;51.198;4.468;2022-10-31T14:45:45;18.60;99.90
22706;DHT22;11520;51.198;4.468;2022-10-31T14:51:18;18.60;99.90
22706;DHT22;11520;51.198;4.468;2022-10-31T14:53:49;18.60;99.90
22706;DHT22;11520;51.198;4.468;2022-10-31T14:56:25;18.60;99.90
22706;DHT22;11520;51.198;4.468;2022-10-31T14:58:53;18.70;99.90
22706;DHT22;11520;51.198;4.468;2022-10-31T15:01:30;18.80;99.90
22706;DHT22;11520;51.198;4.468;2022-10-31T15:04:17;18.60;99.90
22706;DHT22;11520;51.198;4.468;2022-10-31T15:06:47;18.70;99.90
22706;DHT22;11520;51.198;4.468;2022-10-31T15:09:34;18.80;99.90
22706;DHT22;11520;51.198;4.468;2022-10-31T15:12:01;18.70;99.90
22706;DHT22;11520;51.198;4.468;2022-10-31T15:14:42;18.60;99.90
22706;DHT22;11520;51.198;4.468;2022-10-31T15:17:12;18.50;99.90
22706;DHT22;11520;51.198;4.468;2022-10-31T15:19:39;18.50;99.90
22706;DHT22;11520;51.198;4.468;2022-10-31T15:22:10;18.40;99.90
22706;DHT22;11520;51.198;4.468;2022-10-31T15:24:39;18.30;99.90
22706;DHT22;11520;51.198;4.468;2022-10-31T15:27:14;18.30;99.90
22706;DHT22;11520;51.198;4.468;2022-10-31T15:29:54;18.20;99.90
22706;DHT22;11520;51.198;4.468;2022-10-31T15:32:22;18.20;99.90
22706;DHT22;11520;51.198;4.468;2022-10-31T15:34:48;18.20;99.90
22706;DHT22;11520;51.198;4.468;2022-10-31T15:37:18;18.00;99.90
22706;DHT22;11520;51.198;4.468;2022-10-31T15:39:47;17.90;99.90
22706;DHT22;11520;51.198;4.468;2022-10-31T15:42:28;18.00;99.90
22706;DHT22;11520;51.198;4.468;2022-10-31T15:45:02;17.90;99.90
22706;DHT22;11520;51.198;4.468;2022-10-31T15:47:31;17.80;99.90
22706;DHT22;11520;51.198;4.468;2022-10-31T15:49:59;17.80;99.90
22706;DHT22;11520;51.198;4.468;2022-10-31T15:57:43;17.70;99.90
22706;DHT22;11520;51.198;4.468;2022-10-31T16:00:35;17.60;99.90
22706;DHT22;11520;51.198;4.468;2022-10-31T16:05:43;17.50;99.90
22706;DHT22;11520;51.198;4.468;2022-10-31T16:13:41;17.20;99.90
22706;DHT22;11520;51.198;4.468;2022-10-31T16:16:25;17.10;99.90
22706;DHT22;11520;51.198;4.468;2022-10-31T16:18:53;17.10;99.90
22706;DHT22;11520;51.198;4.468;2022-10-31T16:21:30;17.10;99.90
22706;DHT22;11520;51.198;4.468;2022-10-31T16:24:02;16.90;99.90
22706;DHT22;11520;51.198;4.468;2022-10-31T16:26:37;16.90;99.90
22706;DHT22;11520;51.198;4.468;2022-10-31T16:29:02;16.90;99.90
22706;DHT22;11520;51.198;4.468;2022-10-31T16:31:39;16.90;99.90
22706;DHT22;11520;51.198;4.468;2022-10-31T16:34:36;16.80;99.90
22706;DHT22;11520;51.198;4.468;2022-10-31T16:37:03;16.80;99.90
22706;DHT22;11520;51.198;4.468;2022-10-31T16:39:29;16.70;99.90
22706;DHT22;11520;51.198;4.468;2022-10-31T16:41:56;16.60;99.90
22706;DHT22;11520;51.198;4.468;2022-10-31T16:44:26;16.60;99.90
22706;DHT22;11520;51.198;4.468;2022-10-31T16:47:18;16.60;99.90
22706;DHT22;11520;51.198;4.468;2022-10-31T16:49:47;16.50;99.90
22706;DHT22;11520;51.198;4.468;2022-10-31T16:52:14;16.40;99.90
22706;DHT22;11520;51.198;4.468;2022-10-31T16:54:41;16.40;99.90
22706;DHT22;11520;51.198;4.468;2022-10-31T16:57:13;16.40;99.90
22706;DHT22;11520;51.198;4.468;2022-10-31T16:59:40;16.30;99.90
22706;DHT22;11520;51.198;4.468;2022-10-31T17:02:14;16.20;99.90
22706;DHT22;11520;51.198;4.468;2022-10-31T17:04:40;16.20;99.90
22706;DHT22;11520;51.198;4.468;2022-10-31T17:07:08;16.20;99.90
22706;DHT22;11520;51.198;4.468;2022-10-31T17:09:33;16.10;99.90
22706;DHT22;11520;51.198;4.468;2022-10-31T17:12:00;16.10;99.90
22706;DHT22;11520;51.198;4.468;2022-10-31T17:14:27;16.20;99.90
22706;DHT22;11520;51.198;4.468;2022-10-31T17:16:53;16.10;99.90
22706;DHT22;11520;51.198;4.468;2022-10-31T17:19:19;16.00;99.90
22706;DHT22;11520;51.198;4.468;2022-10-31T17:21:44;16.00;99.90
22706;DHT22;11520;51.198;4.468;2022-10-31T17:24:14;16.00;99.90
22706;DHT22;11520;51.198;4.468;2022-10-31T17:26:40;15.90;99.90
22706;DHT22;11520;51.198;4.468;2022-10-31T17:29:10;15.80;99.90
22706;DHT22;11520;51.198;4.468;2022-10-31T17:31:37;15.80;99.90
22706;DHT22;11520;51.198;4.468;2022-10-31T17:34:08;15.70;99.90
22706;DHT22;11520;51.198;4.468;2022-10-31T17:36:34;15.70;99.90
22706;DHT22;11520;51.198;4.468;2022-10-31T17:39:00;15.70;99.90
22706;DHT22;11520;51.198;4.468;2022-10-31T17:41:28;15.60;99.90
22706;DHT22;11520;51.198;4.468;2022-10-31T17:43:59;15.60;99.90
22706;DHT22;11520;51.198;4.468;2022-10-31T17:46:25;15.50;99.90
22706;DHT22;11520;51.198;4.468;2022-10-31T17:48:54;15.50;99.90
22706;DHT22;11520;51.198;4.468;2022-10-31T17:51:20;15.40;99.90
22706;DHT22;11520;51.198;4.468;2022-10-31T17:53:49;15.30;99.90
22706;DHT22;11520;51.198;4.468;2022-10-31T17:56:16;15.30;99.90
22706;DHT22;11520;51.198;4.468;2022-10-31T17:58:46;15.30;99.90
22706;DHT22;11520;51.198;4.468;2022-10-31T18:01:16;15.30;99.90
22706;DHT22;11520;51.198;4.468;2022-10-31T18:03:44;15.30;99.90
22706;DHT22;11520;51.198;4.468;2022-10-31T18:06:10;15.30;99.90
22706;DHT22;11520;51.198;4.468;2022-10-31T18:08:39;15.30;99.90
22706;DHT22;11520;51.198;4.468;2022-10-31T18:11:25;15.30;99.90
22706;DHT22;11520;51.198;4.468;2022-10-31T18:13:57;15.30;99.90
22706;DHT22;11520;51.198;4.468;2022-10-31T18:16:25;15.40;99.90